sensor_id;sensor_type;location;lat;lon;timestamp;P1;durP1;ratioP1;P2;durP2;ratioP2
12687;SDS011;6408;59.388;17.798;2022-12-19T00:01:44;2.27;;;1.30;;
12687;SDS011;6408;59.388;17.798;2022-12-19T00:04:13;3.77;;;1.40;;
12687;SDS011;6408;59.388;17.798;2022-12-19T00:06:44;4.97;;;1.20;;
12687;SDS011;6408;59.388;17.798;2022-12-19T00:09:12;2.87;;;1.20;;
12687;SDS011;6408;59.388;17.798;2022-12-19T00:11:39;3.97;;;1.50;;
12687;SDS011;6408;59.388;17.798;2022-12-19T00:14:07;3.30;;;1.17;;
12687;SDS011;6408;59.388;17.798;2022-12-19T00:16:36;4.60;;;1.50;;
12687;SDS011;6408;59.388;17.798;2022-12-19T00:19:06;2.67;;;1.43;;
12687;SDS011;6408;59.388;17.798;2022-12-19T00:21:33;3.60;;;1.20;;
12687;SDS011;6408;59.388;17.798;2022-12-19T00:24:01;4.23;;;1.30;;
12687;SDS011;6408;59.388;17.798;2022-12-19T00:26:29;2.80;;;1.13;;
12687;SDS011;6408;59.388;17.798;2022-12-19T00:28:58;4.20;;;1.13;;
12687;SDS011;6408;59.388;17.798;2022-12-19T00:31:27;2.20;;;1.13;;
12687;SDS011;6408;59.388;17.798;2022-12-19T00:33:56;4.37;;;1.37;;
12687;SDS011;6408;59.388;17.798;2022-12-19T00:36:26;5.50;;;1.23;;
12687;SDS011;6408;59.388;17.798;2022-12-19T00:38:55;5.63;;;1.50;;
12687;SDS011;6408;59.388;17.798;2022-12-19T00:41:24;5.53;;;1.30;;
12687;SDS011;6408;59.388;17.798;2022-12-19T00:43:54;3.27;;;1.07;;
12687;SDS011;6408;59.388;17.798;2022-12-19T00:46:24;2.97;;;1.40;;
12687;SDS011;6408;59.388;17.798;2022-12-19T00:48:53;5.20;;;1.20;;
12687;SDS011;6408;59.388;17.798;2022-12-19T00:51:21;6.07;;;1.40;;
12687;SDS011;6408;59.388;17.798;2022-12-19T00:53:52;2.47;;;1.07;;
12687;SDS011;6408;59.388;17.798;2022-12-19T00:56:21;4.47;;;1.30;;
12687;SDS011;6408;59.388;17.798;2022-12-19T00:58:51;5.00;;;0.97;;
12687;SDS011;6408;59.388;17.798;2022-12-19T01:01:20;1.73;;;1.17;;
12687;SDS011;6408;59.388;17.798;2022-12-19T01:03:48;6.10;;;2.07;;
12687;SDS011;6408;59.388;17.798;2022-12-19T01:06:16;4.23;;;1.10;;
12687;SDS011;6408;59.388;17.798;2022-12-19T01:08:43;3.57;;;1.30;;
12687;SDS011;6408;59.388;17.798;2022-12-19T01:11:13;2.80;;;1.13;;
12687;SDS011;6408;59.388;17.798;2022-12-19T01:13:41;5.03;;;1.27;;
12687;SDS011;6408;59.388;17.798;2022-12-19T01:16:07;4.03;;;1.20;;
12687;SDS011;6408;59.388;17.798;2022-12-19T01:18:37;2.27;;;1.10;;
12687;SDS011;6408;59.388;17.798;2022-12-19T01:21:05;1.93;;;0.90;;
12687;SDS011;6408;59.388;17.798;2022-12-19T01:23:35;4.83;;;1.17;;
12687;SDS011;6408;59.388;17.798;2022-12-19T01:26:02;7.20;;;1.37;;
12687;SDS011;6408;59.388;17.798;2022-12-19T01:28:32;3.37;;;1.00;;
12687;SDS011;6408;59.388;17.798;2022-12-19T01:30:59;5.13;;;1.33;;
12687;SDS011;6408;59.388;17.798;2022-12-19T01:33:30;3.83;;;1.40;;
12687;SDS011;6408;59.388;17.798;2022-12-19T01:35:57;2.80;;;1.40;;
12687;SDS011;6408;59.388;17.798;2022-12-19T01:38:32;2.33;;;1.17;;
12687;SDS011;6408;59.388;17.798;2022-12-19T01:40:59;4.97;;;1.33;;
12687;SDS011;6408;59.388;17.798;2022-12-19T01:43:28;2.53;;;1.00;;
12687;SDS011;6408;59.388;17.798;2022-12-19T01:45:59;5.80;;;1.60;;
12687;SDS011;6408;59.388;17.798;2022-12-19T01:48:31;3.17;;;1.47;;
12687;SDS011;6408;59.388;17.798;2022-12-19T01:51:01;4.03;;;1.40;;
12687;SDS011;6408;59.388;17.798;2022-12-19T01:53:34;5.73;;;1.50;;
12687;SDS011;6408;59.388;17.798;2022-12-19T01:56:06;4.13;;;1.40;;
12687;SDS011;6408;59.388;17.798;2022-12-19T01:58:37;5.23;;;1.53;;
12687;SDS011;6408;59.388;17.798;2022-12-19T02:01:09;4.73;;;1.30;;
12687;SDS011;6408;59.388;17.798;2022-12-19T02:03:36;7.17;;;1.63;;
12687;SDS011;6408;59.388;17.798;2022-12-19T02:06:05;3.90;;;1.17;;
12687;SDS011;6408;59.388;17.798;2022-12-19T02:08:34;5.07;;;1.50;;
12687;SDS011;6408;59.388;17.798;2022-12-19T02:11:02;5.27;;;1.40;;
12687;SDS011;6408;59.388;17.798;2022-12-19T02:13:29;3.63;;;1.10;;
12687;SDS011;6408;59.388;17.798;2022-12-19T02:15:58;5.93;;;1.53;;
12687;SDS011;6408;59.388;17.798;2022-12-19T02:18:34;3.73;;;1.70;;
12687;SDS011;6408;59.388;17.798;2022-12-19T02:21:15;7.53;;;1.50;;
12687;SDS011;6408;59.388;17.798;2022-12-19T02:27:05;2.00;;;1.27;;
12687;SDS011;6408;59.388;17.798;2022-12-19T02:29:58;4.07;;;1.20;;
12687;SDS011;6408;59.388;17.798;2022-12-19T02:32:34;4.53;;;1.60;;
12687;SDS011;6408;59.388;17.798;2022-12-19T02:35:17;4.63;;;1.40;;
12687;SDS011;6408;59.388;17.798;2022-12-19T02:37:52;3.57;;;1.53;;
12687;SDS011;6408;59.388;17.798;2022-12-19T02:40:26;4.30;;;1.40;;
12687;SDS011;6408;59.388;17.798;2022-12-19T02:42:59;9.97;;;1.57;;
12687;SDS011;6408;59.388;17.798;2022-12-19T02:45:30;4.33;;;1.53;;
12687;SDS011;6408;59.388;17.798;2022-12-19T02:48:02;4.83;;;1.30;;
12687;SDS011;6408;59.388;17.798;2022-12-19T02:50:38;3.70;;;1.27;;
12687;SDS011;6408;59.388;17.798;2022-12-19T02:53:08;2.57;;;1.07;;
12687;SDS011;6408;59.388;17.798;2022-12-19T02:55:38;4.60;;;1.20;;
12687;SDS011;6408;59.388;17.798;2022-12-19T02:58:19;9.47;;;1.53;;
12687;SDS011;6408;59.388;17.798;2022-12-19T03:00:58;3.67;;;1.10;;
12687;SDS011;6408;59.388;17.798;2022-12-19T03:03:35;4.13;;;1.23;;
12687;SDS011;6408;59.388;17.798;2022-12-19T03:06:13;4.57;;;1.43;;
12687;SDS011;6408;59.388;17.798;2022-12-19T03:08:51;2.57;;;1.30;;
12687;SDS011;6408;59.388;17.798;2022-12-19T03:11:26;7.17;;;1.73;;
12687;SDS011;6408;59.388;17.798;2022-12-19T03:14:00;3.90;;;1.30;;
12687;SDS011;6408;59.388;17.798;2022-12-19T03:16:32;1.80;;;1.00;;
12687;SDS011;6408;59.388;17.798;2022-12-19T03:19:02;6.47;;;1.50;;
12687;SDS011;6408;59.388;17.798;2022-12-19T03:21:31;6.63;;;1.47;;
12687;SDS011;6408;59.388;17.798;2022-12-19T03:24:02;3.47;;;1.10;;
12687;SDS011;6408;59.388;17.798;2022-12-19T03:26:33;5.33;;;1.27;;
12687;SDS011;6408;59.388;17.798;2022-12-19T03:29:06;3.60;;;1.60;;
12687;SDS011;6408;59.388;17.798;2022-12-19T03:31:39;4.70;;;1.60;;
12687;SDS011;6408;59.388;17.798;2022-12-19T03:34:11;6.87;;;1.70;;
12687;SDS011;6408;59.388;17.798;2022-12-19T03:36:44;5.17;;;1.50;;
12687;SDS011;6408;59.388;17.798;2022-12-19T03:39:13;4.93;;;1.30;;
12687;SDS011;6408;59.388;17.798;2022-12-19T03:41:41;4.77;;;1.60;;
12687;SDS011;6408;59.388;17.798;2022-12-19T03:44:29;2.67;;;1.20;;
12687;SDS011;6408;59.388;17.798;2022-12-19T03:47:01;3.03;;;1.20;;
12687;SDS011;6408;59.388;17.798;2022-12-19T03:49:35;3.90;;;1.20;;
12687;SDS011;6408;59.388;17.798;2022-12-19T03:52:05;5.03;;;1.47;;
12687;SDS011;6408;59.388;17.798;2022-12-19T03:54:38;2.00;;;1.20;;
12687;SDS011;6408;59.388;17.798;2022-12-19T03:57:11;5.87;;;1.37;;
12687;SDS011;6408;59.388;17.798;2022-12-19T03:59:44;4.70;;;1.57;;
12687;SDS011;6408;59.388;17.798;2022-12-19T04:02:15;2.93;;;1.40;;
12687;SDS011;6408;59.388;17.798;2022-12-19T04:04:46;4.17;;;1.47;;
12687;SDS011;6408;59.388;17.798;2022-12-19T04:07:24;3.03;;;1.50;;
12687;SDS011;6408;59.388;17.798;2022-12-19T04:09:51;4.50;;;1.50;;
12687;SDS011;6408;59.388;17.798;2022-12-19T04:12:21;4.83;;;1.40;;
12687;SDS011;6408;59.388;17.798;2022-12-19T04:14:54;5.40;;;1.40;;
12687;SDS011;6408;59.388;17.798;2022-12-19T04:17:24;5.17;;;1.60;;
12687;SDS011;6408;59.388;17.798;2022-12-19T04:20:02;3.00;;;1.30;;
12687;SDS011;6408;59.388;17.798;2022-12-19T04:22:33;3.63;;;1.50;;
12687;SDS011;6408;59.388;17.798;2022-12-19T04:25:04;3.70;;;1.63;;
12687;SDS011;6408;59.388;17.798;2022-12-19T04:27:36;3.20;;;1.53;;
12687;SDS011;6408;59.388;17.798;2022-12-19T04:30:06;7.83;;;2.50;;
12687;SDS011;6408;59.388;17.798;2022-12-19T04:32:34;6.73;;;1.90;;
12687;SDS011;6408;59.388;17.798;2022-12-19T04:35:05;6.70;;;1.90;;
12687;SDS011;6408;59.388;17.798;2022-12-19T04:37:33;5.13;;;1.57;;
12687;SDS011;6408;59.388;17.798;2022-12-19T04:40:01;3.20;;;1.57;;
12687;SDS011;6408;59.388;17.798;2022-12-19T04:42:28;5.90;;;2.00;;
12687;SDS011;6408;59.388;17.798;2022-12-19T04:44:56;5.33;;;2.20;;
12687;SDS011;6408;59.388;17.798;2022-12-19T04:47:24;9.60;;;2.60;;
12687;SDS011;6408;59.388;17.798;2022-12-19T04:49:51;6.50;;;2.47;;
12687;SDS011;6408;59.388;17.798;2022-12-19T04:52:21;6.97;;;2.50;;
12687;SDS011;6408;59.388;17.798;2022-12-19T04:54:48;7.37;;;2.77;;
12687;SDS011;6408;59.388;17.798;2022-12-19T04:57:16;7.40;;;3.37;;
12687;SDS011;6408;59.388;17.798;2022-12-19T04:59:43;7.43;;;3.27;;
12687;SDS011;6408;59.388;17.798;2022-12-19T05:02:11;7.83;;;3.67;;
12687;SDS011;6408;59.388;17.798;2022-12-19T05:04:38;7.93;;;3.83;;
12687;SDS011;6408;59.388;17.798;2022-12-19T05:07:06;12.03;;;3.73;;
12687;SDS011;6408;59.388;17.798;2022-12-19T05:09:35;7.77;;;3.27;;
12687;SDS011;6408;59.388;17.798;2022-12-19T05:12:03;7.77;;;3.97;;
12687;SDS011;6408;59.388;17.798;2022-12-19T05:14:31;7.73;;;3.83;;
12687;SDS011;6408;59.388;17.798;2022-12-19T05:16:58;7.00;;;3.93;;
12687;SDS011;6408;59.388;17.798;2022-12-19T05:19:26;12.50;;;4.70;;
12687;SDS011;6408;59.388;17.798;2022-12-19T05:21:54;9.57;;;5.13;;
12687;SDS011;6408;59.388;17.798;2022-12-19T05:24:21;8.83;;;5.03;;
12687;SDS011;6408;59.388;17.798;2022-12-19T05:26:50;11.43;;;5.97;;
12687;SDS011;6408;59.388;17.798;2022-12-19T05:29:18;11.37;;;5.20;;
12687;SDS011;6408;59.388;17.798;2022-12-19T05:31:45;9.77;;;5.03;;
12687;SDS011;6408;59.388;17.798;2022-12-19T05:34:13;11.60;;;6.60;;
12687;SDS011;6408;59.388;17.798;2022-12-19T05:36:40;10.63;;;5.40;;
12687;SDS011;6408;59.388;17.798;2022-12-19T05:39:08;13.63;;;6.23;;
12687;SDS011;6408;59.388;17.798;2022-12-19T05:41:35;9.73;;;6.13;;
12687;SDS011;6408;59.388;17.798;2022-12-19T05:44:05;12.93;;;6.60;;
12687;SDS011;6408;59.388;17.798;2022-12-19T05:46:32;14.30;;;7.47;;
12687;SDS011;6408;59.388;17.798;2022-12-19T05:49:00;15.20;;;7.77;;
12687;SDS011;6408;59.388;17.798;2022-12-19T05:51:27;12.80;;;7.30;;
12687;SDS011;6408;59.388;17.798;2022-12-19T05:53:55;9.93;;;6.20;;
12687;SDS011;6408;59.388;17.798;2022-12-19T05:56:22;12.00;;;6.90;;
12687;SDS011;6408;59.388;17.798;2022-12-19T05:58:50;16.90;;;7.50;;
12687;SDS011;6408;59.388;17.798;2022-12-19T06:01:21;13.47;;;7.80;;
12687;SDS011;6408;59.388;17.798;2022-12-19T06:03:50;10.70;;;6.70;;
12687;SDS011;6408;59.388;17.798;2022-12-19T06:06:18;13.53;;;6.47;;
12687;SDS011;6408;59.388;17.798;2022-12-19T06:08:51;11.30;;;7.20;;
12687;SDS011;6408;59.388;17.798;2022-12-19T06:11:19;12.03;;;6.97;;
12687;SDS011;6408;59.388;17.798;2022-12-19T06:13:47;10.90;;;6.40;;
12687;SDS011;6408;59.388;17.798;2022-12-19T06:16:15;13.53;;;7.70;;
12687;SDS011;6408;59.388;17.798;2022-12-19T06:18:46;11.73;;;7.07;;
12687;SDS011;6408;59.388;17.798;2022-12-19T06:21:14;12.50;;;7.37;;
12687;SDS011;6408;59.388;17.798;2022-12-19T06:23:42;16.30;;;7.20;;
12687;SDS011;6408;59.388;17.798;2022-12-19T06:26:11;13.53;;;7.03;;
12687;SDS011;6408;59.388;17.798;2022-12-19T06:28:40;12.93;;;7.00;;
12687;SDS011;6408;59.388;17.798;2022-12-19T06:31:09;13.30;;;6.67;;
12687;SDS011;6408;59.388;17.798;2022-12-19T06:33:39;9.70;;;6.03;;
12687;SDS011;6408;59.388;17.798;2022-12-19T06:36:12;11.80;;;7.50;;
12687;SDS011;6408;59.388;17.798;2022-12-19T06:38:42;13.87;;;7.10;;
12687;SDS011;6408;59.388;17.798;2022-12-19T06:41:09;10.97;;;6.80;;
12687;SDS011;6408;59.388;17.798;2022-12-19T06:43:56;10.90;;;6.67;;
12687;SDS011;6408;59.388;17.798;2022-12-19T06:46:23;8.63;;;6.17;;
12687;SDS011;6408;59.388;17.798;2022-12-19T06:48:51;12.13;;;7.10;;
12687;SDS011;6408;59.388;17.798;2022-12-19T06:51:20;10.50;;;6.90;;
12687;SDS011;6408;59.388;17.798;2022-12-19T06:53:48;11.00;;;7.17;;
12687;SDS011;6408;59.388;17.798;2022-12-19T06:56:16;16.57;;;9.90;;
12687;SDS011;6408;59.388;17.798;2022-12-19T06:58:44;18.10;;;10.70;;
12687;SDS011;6408;59.388;17.798;2022-12-19T07:01:15;15.90;;;9.13;;
12687;SDS011;6408;59.388;17.798;2022-12-19T07:03:43;12.30;;;8.67;;
12687;SDS011;6408;59.388;17.798;2022-12-19T07:06:13;13.63;;;7.73;;
12687;SDS011;6408;59.388;17.798;2022-12-19T07:08:43;11.13;;;7.63;;
12687;SDS011;6408;59.388;17.798;2022-12-19T07:11:10;13.13;;;6.67;;
12687;SDS011;6408;59.388;17.798;2022-12-19T07:13:37;15.37;;;7.47;;
12687;SDS011;6408;59.388;17.798;2022-12-19T07:16:05;12.77;;;7.60;;
12687;SDS011;6408;59.388;17.798;2022-12-19T07:18:34;13.37;;;7.30;;
12687;SDS011;6408;59.388;17.798;2022-12-19T07:21:03;14.20;;;7.63;;
12687;SDS011;6408;59.388;17.798;2022-12-19T07:23:33;14.53;;;7.07;;
12687;SDS011;6408;59.388;17.798;2022-12-19T07:26:03;14.27;;;7.63;;
12687;SDS011;6408;59.388;17.798;2022-12-19T07:28:30;14.80;;;7.30;;
12687;SDS011;6408;59.388;17.798;2022-12-19T07:30:59;11.77;;;7.67;;
12687;SDS011;6408;59.388;17.798;2022-12-19T07:33:27;14.93;;;8.47;;
12687;SDS011;6408;59.388;17.798;2022-12-19T07:35:54;13.60;;;8.40;;
12687;SDS011;6408;59.388;17.798;2022-12-19T07:38:22;19.30;;;10.20;;
12687;SDS011;6408;59.388;17.798;2022-12-19T07:40:49;14.90;;;9.33;;
12687;SDS011;6408;59.388;17.798;2022-12-19T07:43:19;18.40;;;9.53;;
12687;SDS011;6408;59.388;17.798;2022-12-19T07:45:46;15.10;;;8.73;;
12687;SDS011;6408;59.388;17.798;2022-12-19T07:48:19;14.70;;;9.17;;
12687;SDS011;6408;59.388;17.798;2022-12-19T07:50:46;11.10;;;7.70;;
12687;SDS011;6408;59.388;17.798;2022-12-19T07:53:14;14.67;;;7.97;;
12687;SDS011;6408;59.388;17.798;2022-12-19T07:55:42;15.53;;;7.93;;
12687;SDS011;6408;59.388;17.798;2022-12-19T07:58:09;14.20;;;9.00;;
12687;SDS011;6408;59.388;17.798;2022-12-19T08:00:39;14.63;;;7.97;;
12687;SDS011;6408;59.388;17.798;2022-12-19T08:03:06;12.40;;;8.20;;
12687;SDS011;6408;59.388;17.798;2022-12-19T08:05:33;14.00;;;8.17;;
12687;SDS011;6408;59.388;17.798;2022-12-19T08:08:01;15.30;;;8.87;;
12687;SDS011;6408;59.388;17.798;2022-12-19T08:10:29;13.30;;;7.60;;
12687;SDS011;6408;59.388;17.798;2022-12-19T08:12:56;10.87;;;7.20;;
12687;SDS011;6408;59.388;17.798;2022-12-19T08:15:23;10.97;;;7.10;;
12687;SDS011;6408;59.388;17.798;2022-12-19T08:17:54;8.77;;;6.10;;
12687;SDS011;6408;59.388;17.798;2022-12-19T08:20:21;9.43;;;6.00;;
12687;SDS011;6408;59.388;17.798;2022-12-19T08:22:49;9.97;;;5.50;;
12687;SDS011;6408;59.388;17.798;2022-12-19T08:25:16;10.17;;;5.97;;
12687;SDS011;6408;59.388;17.798;2022-12-19T08:27:43;8.53;;;5.33;;
12687;SDS011;6408;59.388;17.798;2022-12-19T08:30:11;7.70;;;4.43;;
12687;SDS011;6408;59.388;17.798;2022-12-19T08:32:39;6.37;;;3.90;;
12687;SDS011;6408;59.388;17.798;2022-12-19T08:35:09;5.60;;;4.47;;
12687;SDS011;6408;59.388;17.798;2022-12-19T08:37:36;7.67;;;4.23;;
12687;SDS011;6408;59.388;17.798;2022-12-19T08:40:04;7.73;;;4.07;;
12687;SDS011;6408;59.388;17.798;2022-12-19T08:42:33;5.83;;;3.80;;
12687;SDS011;6408;59.388;17.798;2022-12-19T08:45:00;9.17;;;3.93;;
12687;SDS011;6408;59.388;17.798;2022-12-19T08:47:27;7.90;;;3.80;;
12687;SDS011;6408;59.388;17.798;2022-12-19T08:49:55;10.93;;;4.87;;
12687;SDS011;6408;59.388;17.798;2022-12-19T08:52:24;9.63;;;4.93;;
12687;SDS011;6408;59.388;17.798;2022-12-19T08:54:51;8.17;;;5.17;;
12687;SDS011;6408;59.388;17.798;2022-12-19T08:57:18;7.17;;;4.07;;
12687;SDS011;6408;59.388;17.798;2022-12-19T08:59:46;8.43;;;4.00;;
12687;SDS011;6408;59.388;17.798;2022-12-19T09:02:13;7.57;;;3.97;;
12687;SDS011;6408;59.388;17.798;2022-12-19T09:04:41;6.90;;;4.00;;
12687;SDS011;6408;59.388;17.798;2022-12-19T09:07:09;6.73;;;4.03;;
12687;SDS011;6408;59.388;17.798;2022-12-19T09:09:39;6.67;;;3.70;;
12687;SDS011;6408;59.388;17.798;2022-12-19T09:12:06;6.63;;;3.03;;
12687;SDS011;6408;59.388;17.798;2022-12-19T09:14:34;6.60;;;3.10;;
12687;SDS011;6408;59.388;17.798;2022-12-19T09:17:02;6.43;;;3.07;;
12687;SDS011;6408;59.388;17.798;2022-12-19T09:19:29;4.97;;;3.43;;
12687;SDS011;6408;59.388;17.798;2022-12-19T09:21:57;6.47;;;3.07;;
12687;SDS011;6408;59.388;17.798;2022-12-19T09:24:24;5.20;;;2.67;;
12687;SDS011;6408;59.388;17.798;2022-12-19T09:26:53;3.40;;;2.27;;
12687;SDS011;6408;59.388;17.798;2022-12-19T09:29:20;6.03;;;2.87;;
12687;SDS011;6408;59.388;17.798;2022-12-19T09:31:48;6.93;;;2.43;;
12687;SDS011;6408;59.388;17.798;2022-12-19T09:34:15;5.63;;;2.50;;
12687;SDS011;6408;59.388;17.798;2022-12-19T09:36:43;4.40;;;2.60;;
12687;SDS011;6408;59.388;17.798;2022-12-19T09:39:10;6.90;;;3.50;;
12687;SDS011;6408;59.388;17.798;2022-12-19T09:41:46;6.53;;;3.70;;
12687;SDS011;6408;59.388;17.798;2022-12-19T09:44:30;5.43;;;3.10;;
12687;SDS011;6408;59.388;17.798;2022-12-19T09:47:12;8.03;;;3.07;;
12687;SDS011;6408;59.388;17.798;2022-12-19T09:49:43;8.67;;;3.33;;
12687;SDS011;6408;59.388;17.798;2022-12-19T09:52:14;11.07;;;3.87;;
12687;SDS011;6408;59.388;17.798;2022-12-19T09:54:45;9.73;;;4.17;;
12687;SDS011;6408;59.388;17.798;2022-12-19T09:57:17;8.63;;;4.20;;
12687;SDS011;6408;59.388;17.798;2022-12-19T09:59:59;6.93;;;3.20;;
12687;SDS011;6408;59.388;17.798;2022-12-19T10:02:32;8.10;;;4.17;;
12687;SDS011;6408;59.388;17.798;2022-12-19T10:05:10;9.07;;;4.63;;
12687;SDS011;6408;59.388;17.798;2022-12-19T10:07:41;8.10;;;4.27;;
12687;SDS011;6408;59.388;17.798;2022-12-19T10:10:11;11.13;;;4.17;;
12687;SDS011;6408;59.388;17.798;2022-12-19T10:12:48;8.87;;;4.63;;
12687;SDS011;6408;59.388;17.798;2022-12-19T10:15:28;12.20;;;4.90;;
12687;SDS011;6408;59.388;17.798;2022-12-19T10:18:15;9.67;;;4.20;;
12687;SDS011;6408;59.388;17.798;2022-12-19T10:20:58;10.47;;;5.07;;
12687;SDS011;6408;59.388;17.798;2022-12-19T10:26:22;11.43;;;4.93;;
12687;SDS011;6408;59.388;17.798;2022-12-19T10:28:59;11.97;;;5.07;;
12687;SDS011;6408;59.388;17.798;2022-12-19T10:31:34;13.37;;;5.60;;
12687;SDS011;6408;59.388;17.798;2022-12-19T10:34:06;11.90;;;5.73;;
12687;SDS011;6408;59.388;17.798;2022-12-19T10:36:42;12.10;;;6.00;;
12687;SDS011;6408;59.388;17.798;2022-12-19T10:39:11;12.63;;;6.20;;
12687;SDS011;6408;59.388;17.798;2022-12-19T10:41:50;11.37;;;5.90;;
12687;SDS011;6408;59.388;17.798;2022-12-19T10:44:24;13.67;;;6.37;;
12687;SDS011;6408;59.388;17.798;2022-12-19T10:46:55;13.87;;;6.60;;
12687;SDS011;6408;59.388;17.798;2022-12-19T10:49:24;12.20;;;5.90;;
12687;SDS011;6408;59.388;17.798;2022-12-19T10:51:55;14.77;;;6.07;;
12687;SDS011;6408;59.388;17.798;2022-12-19T10:54:24;11.33;;;5.80;;
12687;SDS011;6408;59.388;17.798;2022-12-19T10:57:16;12.70;;;6.50;;
12687;SDS011;6408;59.388;17.798;2022-12-19T10:59:54;12.00;;;6.30;;
12687;SDS011;6408;59.388;17.798;2022-12-19T11:02:29;13.17;;;6.90;;
12687;SDS011;6408;59.388;17.798;2022-12-19T11:05:00;12.97;;;6.50;;
12687;SDS011;6408;59.388;17.798;2022-12-19T11:07:29;12.73;;;6.13;;
12687;SDS011;6408;59.388;17.798;2022-12-19T11:09:56;14.63;;;7.03;;
12687;SDS011;6408;59.388;17.798;2022-12-19T11:12:24;16.53;;;6.50;;
12687;SDS011;6408;59.388;17.798;2022-12-19T11:17:39;13.43;;;7.13;;
12687;SDS011;6408;59.388;17.798;2022-12-19T11:20:11;12.73;;;6.40;;
12687;SDS011;6408;59.388;17.798;2022-12-19T11:22:39;12.33;;;6.23;;
12687;SDS011;6408;59.388;17.798;2022-12-19T11:25:16;14.03;;;7.40;;
12687;SDS011;6408;59.388;17.798;2022-12-19T11:27:46;12.03;;;7.07;;
12687;SDS011;6408;59.388;17.798;2022-12-19T11:30:20;11.73;;;6.63;;
12687;SDS011;6408;59.388;17.798;2022-12-19T11:35:45;14.80;;;7.70;;
12687;SDS011;6408;59.388;17.798;2022-12-19T11:38:15;11.13;;;6.17;;
12687;SDS011;6408;59.388;17.798;2022-12-19T11:40:46;12.43;;;6.60;;
12687;SDS011;6408;59.388;17.798;2022-12-19T11:43:18;16.27;;;7.20;;
12687;SDS011;6408;59.388;17.798;2022-12-19T11:45:53;13.63;;;6.83;;
12687;SDS011;6408;59.388;17.798;2022-12-19T11:48:27;13.97;;;7.70;;
12687;SDS011;6408;59.388;17.798;2022-12-19T11:51:04;12.43;;;6.23;;
12687;SDS011;6408;59.388;17.798;2022-12-19T11:53:41;15.17;;;7.53;;
12687;SDS011;6408;59.388;17.798;2022-12-19T11:56:15;17.63;;;7.13;;
12687;SDS011;6408;59.388;17.798;2022-12-19T11:58:46;19.87;;;7.87;;
12687;SDS011;6408;59.388;17.798;2022-12-19T12:01:18;15.43;;;6.60;;
12687;SDS011;6408;59.388;17.798;2022-12-19T12:04:00;13.03;;;7.87;;
12687;SDS011;6408;59.388;17.798;2022-12-19T12:06:44;13.10;;;7.10;;
12687;SDS011;6408;59.388;17.798;2022-12-19T12:09:16;14.77;;;7.30;;
12687;SDS011;6408;59.388;17.798;2022-12-19T12:11:52;14.93;;;7.57;;
12687;SDS011;6408;59.388;17.798;2022-12-19T12:14:27;14.03;;;7.60;;
12687;SDS011;6408;59.388;17.798;2022-12-19T12:20:00;15.47;;;9.23;;
12687;SDS011;6408;59.388;17.798;2022-12-19T12:22:43;16.43;;;8.37;;
12687;SDS011;6408;59.388;17.798;2022-12-19T12:25:22;17.53;;;8.73;;
12687;SDS011;6408;59.388;17.798;2022-12-19T12:28:00;13.63;;;7.70;;
12687;SDS011;6408;59.388;17.798;2022-12-19T12:30:42;17.07;;;8.03;;
12687;SDS011;6408;59.388;17.798;2022-12-19T12:33:18;16.73;;;9.57;;
12687;SDS011;6408;59.388;17.798;2022-12-19T12:35:55;19.93;;;10.70;;
12687;SDS011;6408;59.388;17.798;2022-12-19T12:41:25;13.80;;;8.00;;
12687;SDS011;6408;59.388;17.798;2022-12-19T12:44:14;12.37;;;7.90;;
12687;SDS011;6408;59.388;17.798;2022-12-19T12:46:43;13.97;;;7.23;;
12687;SDS011;6408;59.388;17.798;2022-12-19T12:49:23;15.93;;;8.37;;
12687;SDS011;6408;59.388;17.798;2022-12-19T12:52:05;13.10;;;7.57;;
12687;SDS011;6408;59.388;17.798;2022-12-19T12:54:36;14.17;;;8.40;;
12687;SDS011;6408;59.388;17.798;2022-12-19T12:57:14;15.67;;;8.67;;
12687;SDS011;6408;59.388;17.798;2022-12-19T12:59:46;14.47;;;7.80;;
12687;SDS011;6408;59.388;17.798;2022-12-19T13:02:15;17.10;;;8.23;;
12687;SDS011;6408;59.388;17.798;2022-12-19T13:04:57;15.17;;;8.33;;
12687;SDS011;6408;59.388;17.798;2022-12-19T13:07:27;16.57;;;8.07;;
12687;SDS011;6408;59.388;17.798;2022-12-19T13:10:15;19.33;;;9.70;;
12687;SDS011;6408;59.388;17.798;2022-12-19T13:12:57;14.13;;;8.27;;
12687;SDS011;6408;59.388;17.798;2022-12-19T13:21:04;19.10;;;8.77;;
12687;SDS011;6408;59.388;17.798;2022-12-19T13:26:44;17.80;;;7.87;;
12687;SDS011;6408;59.388;17.798;2022-12-19T13:29:33;16.00;;;7.80;;
12687;SDS011;6408;59.388;17.798;2022-12-19T13:32:15;17.03;;;7.77;;
12687;SDS011;6408;59.388;17.798;2022-12-19T13:34:52;14.47;;;8.00;;
12687;SDS011;6408;59.388;17.798;2022-12-19T13:37:38;19.37;;;8.27;;
12687;SDS011;6408;59.388;17.798;2022-12-19T13:40:14;17.33;;;7.60;;
12687;SDS011;6408;59.388;17.798;2022-12-19T13:42:57;15.23;;;7.63;;
12687;SDS011;6408;59.388;17.798;2022-12-19T13:45:56;14.20;;;7.47;;
12687;SDS011;6408;59.388;17.798;2022-12-19T13:48:27;16.10;;;8.10;;
12687;SDS011;6408;59.388;17.798;2022-12-19T13:50:58;15.37;;;7.77;;
12687;SDS011;6408;59.388;17.798;2022-12-19T13:53:31;16.57;;;7.23;;
12687;SDS011;6408;59.388;17.798;2022-12-19T13:55:59;14.30;;;7.67;;
12687;SDS011;6408;59.388;17.798;2022-12-19T13:58:27;14.63;;;7.63;;
12687;SDS011;6408;59.388;17.798;2022-12-19T14:00:59;16.37;;;7.23;;
12687;SDS011;6408;59.388;17.798;2022-12-19T14:03:32;17.33;;;8.00;;
12687;SDS011;6408;59.388;17.798;2022-12-19T14:06:04;14.33;;;7.17;;
12687;SDS011;6408;59.388;17.798;2022-12-19T14:08:37;14.00;;;7.70;;
12687;SDS011;6408;59.388;17.798;2022-12-19T14:11:06;17.67;;;7.20;;
12687;SDS011;6408;59.388;17.798;2022-12-19T14:13:41;16.00;;;6.87;;
12687;SDS011;6408;59.388;17.798;2022-12-19T14:16:28;15.53;;;7.93;;
12687;SDS011;6408;59.388;17.798;2022-12-19T14:18:56;16.63;;;7.07;;
12687;SDS011;6408;59.388;17.798;2022-12-19T14:21:25;16.47;;;7.53;;
12687;SDS011;6408;59.388;17.798;2022-12-19T14:26:40;16.47;;;7.37;;
12687;SDS011;6408;59.388;17.798;2022-12-19T14:29:11;17.03;;;8.80;;
12687;SDS011;6408;59.388;17.798;2022-12-19T14:31:41;17.47;;;8.43;;
12687;SDS011;6408;59.388;17.798;2022-12-19T14:34:12;18.57;;;8.23;;
12687;SDS011;6408;59.388;17.798;2022-12-19T14:36:45;15.00;;;7.53;;
12687;SDS011;6408;59.388;17.798;2022-12-19T14:39:20;18.20;;;8.57;;
12687;SDS011;6408;59.388;17.798;2022-12-19T14:41:49;13.87;;;6.80;;
12687;SDS011;6408;59.388;17.798;2022-12-19T14:44:43;17.00;;;8.37;;
12687;SDS011;6408;59.388;17.798;2022-12-19T14:47:19;18.87;;;8.03;;
12687;SDS011;6408;59.388;17.798;2022-12-19T14:49:48;17.60;;;7.60;;
12687;SDS011;6408;59.388;17.798;2022-12-19T14:52:32;15.63;;;8.27;;
12687;SDS011;6408;59.388;17.798;2022-12-19T14:55:24;17.53;;;8.20;;
12687;SDS011;6408;59.388;17.798;2022-12-19T14:57:54;17.17;;;7.90;;
12687;SDS011;6408;59.388;17.798;2022-12-19T15:00:24;19.40;;;8.03;;
12687;SDS011;6408;59.388;17.798;2022-12-19T15:02:53;15.10;;;7.40;;
12687;SDS011;6408;59.388;17.798;2022-12-19T15:05:23;16.93;;;8.07;;
12687;SDS011;6408;59.388;17.798;2022-12-19T15:07:52;16.43;;;7.63;;
12687;SDS011;6408;59.388;17.798;2022-12-19T15:10:23;17.00;;;7.60;;
12687;SDS011;6408;59.388;17.798;2022-12-19T15:12:56;16.57;;;7.30;;
12687;SDS011;6408;59.388;17.798;2022-12-19T15:15:43;17.67;;;7.60;;
12687;SDS011;6408;59.388;17.798;2022-12-19T15:18:22;15.33;;;7.83;;
12687;SDS011;6408;59.388;17.798;2022-12-19T15:20:51;17.10;;;8.20;;
12687;SDS011;6408;59.388;17.798;2022-12-19T15:23:19;15.87;;;7.83;;
12687;SDS011;6408;59.388;17.798;2022-12-19T15:25:49;15.47;;;7.13;;
12687;SDS011;6408;59.388;17.798;2022-12-19T15:28:18;16.07;;;7.10;;
12687;SDS011;6408;59.388;17.798;2022-12-19T15:30:48;14.20;;;7.00;;
12687;SDS011;6408;59.388;17.798;2022-12-19T15:33:18;16.97;;;7.47;;
12687;SDS011;6408;59.388;17.798;2022-12-19T15:35:45;16.37;;;7.37;;